Time;durP1;ratioP1;P1;durP2;ratioP2;P2;SDS_P1;SDS_P2;PMS_P1;PMS_P2;Temp;Humidity;BMP_temperature;BMP_pressure;BME280_temperature;BME280_humidity;BME280_pressure;Samples;Min_cycle;Max_cycle;Signal;HPM_P1;HPM_P2
2022/05/22 00:02:16;;;;;;;4.93;4.38;;;;;;;;;;5073287;28;20052;-87
2022/05/22 00:04:43;;;;;;;5.25;4.57;;;;;;;;;;5073297;28;20087;-87
2022/05/22 00:07:10;;;;;;;5.65;4.20;;;;;;;;;;5073515;28;20457;-87
2022/05/22 00:09:37;;;;;;;6.22;4.47;;;;;;;;;;5055401;28;20048;-87
2022/05/22 00:12:05;;;;;;;6.45;4.55;;;;;;;;;;5055797;28;20083;-88
2022/05/22 00:14:33;;;;;;;6.03;4.10;;;;;;;;;;5072579;28;20048;-86
2022/05/22 00:17:00;;;;;;;5.43;4.30;;;;;;;;;;5072995;28;20132;-87
2022/05/22 00:19:29;;;;;;;6.50;4.25;;;;;;;;;;5055666;28;20048;-87
2022/05/22 00:21:56;;;;;;;5.03;4.20;;;;;;;;;;5055676;28;20044;-88
2022/05/22 00:24:24;;;;;;;4.80;4.30;;;;;;;;;;5055837;28;20041;-88
2022/05/22 00:26:52;;;;;;;6.38;4.50;;;;;;;;;;5055973;28;20076;-88
2022/05/22 00:29:19;;;;;;;6.88;5.10;;;;;;;;;;5055629;28;20264;-88
2022/05/22 00:31:47;;;;;;;5.28;4.80;;;;;;;;;;5055646;28;20048;-87
2022/05/22 00:34:14;;;;;;;10.35;5.03;;;;;;;;;;5055721;28;20053;-88
2022/05/22 00:36:42;;;;;;;6.07;5.15;;;;;;;;;;5073281;28;20044;-88
2022/05/22 00:39:09;;;;;;;7.10;4.93;;;;;;;;;;5055826;28;20186;-87
2022/05/22 00:41:36;;;;;;;9.43;5.53;;;;;;;;;;5055957;28;20049;-88
2022/05/22 00:44:05;;;;;;;7.53;5.55;;;;;;;;;;5053374;28;20049;-87
2022/05/22 00:46:33;;;;;;;9.82;5.40;;;;;;;;;;5054173;28;20084;-87
2022/05/22 00:49:02;;;;;;;6.78;5.68;;;;;;;;;;5073115;28;20052;-87
2022/05/22 00:51:29;;;;;;;9.57;5.22;;;;;;;;;;5055461;28;20094;-88
2022/05/22 00:53:59;;;;;;;7.32;5.68;;;;;;;;;;5055720;28;20568;-87
2022/05/22 00:56:33;;;;;;;6.03;5.43;;;;;;;;;;5061430;28;20060;-87
2022/05/22 00:59:00;;;;;;;9.52;5.88;;;;;;;;;;5071106;28;20059;-87
2022/05/22 01:01:28;;;;;;;8.52;5.97;;;;;;;;;;5071072;28;20045;-88
2022/05/22 01:03:56;;;;;;;11.52;6.03;;;;;;;;;;5073815;28;20511;-87
2022/05/22 01:06:26;;;;;;;11.25;6.53;;;;;;;;;;5075280;28;20071;-87
2022/05/22 01:08:53;;;;;;;6.13;5.63;;;;;;;;;;5074352;28;20048;-88
2022/05/22 01:11:24;;;;;;;13.48;6.03;;;;;;;;;;5075474;28;20132;-88
2022/05/22 01:14:01;;;;;;;8.55;6.38;;;;;;;;;;5075444;28;20407;-87
2022/05/22 01:16:28;;;;;;;10.38;7.22;;;;;;;;;;5074239;28;20059;-87
2022/05/22 01:18:57;;;;;;;9.43;6.82;;;;;;;;;;5075363;28;20068;-88
2022/05/22 01:21:26;;;;;;;9.50;6.53;;;;;;;;;;5074053;28;20216;-87
2022/05/22 01:23:53;;;;;;;7.63;6.32;;;;;;;;;;5075164;28;20147;-88
2022/05/22 01:26:20;;;;;;;10.80;6.13;;;;;;;;;;5078092;28;20179;-88
2022/05/22 01:28:48;;;;;;;8.20;6.30;;;;;;;;;;5074245;28;20468;-88
2022/05/22 01:31:15;;;;;;;7.00;6.20;;;;;;;;;;5075142;28;20135;-88
2022/05/22 01:33:42;;;;;;;12.93;7.30;;;;;;;;;;5073788;28;20114;-87
2022/05/22 01:36:09;;;;;;;7.47;6.43;;;;;;;;;;5073726;28;20112;-88
2022/05/22 01:38:37;;;;;;;12.77;7.30;;;;;;;;;;5074741;28;20559;-88
2022/05/22 01:41:05;;;;;;;6.85;6.20;;;;;;;;;;5074073;28;20131;-88
2022/05/22 01:43:32;;;;;;;10.63;7.22;;;;;;;;;;5073971;28;20389;-88
2022/05/22 01:45:59;;;;;;;8.60;6.82;;;;;;;;;;5074890;28;20485;-88
2022/05/22 01:48:27;;;;;;;8.38;6.88;;;;;;;;;;5073723;28;20084;-88
2022/05/22 01:50:54;;;;;;;9.63;6.57;;;;;;;;;;5073619;28;20483;-88
2022/05/22 01:53:22;;;;;;;7.85;6.75;;;;;;;;;;5073978;28;20475;-88
2022/05/22 01:55:50;;;;;;;7.50;6.65;;;;;;;;;;5038248;28;1034633;-87
2022/05/22 01:58:17;;;;;;;10.40;7.00;;;;;;;;;;5076015;28;20109;-88
2022/05/22 02:00:45;;;;;;;10.93;7.68;;;;;;;;;;5067760;28;20042;-87
2022/05/22 02:03:12;;;;;;;10.00;6.82;;;;;;;;;;5062360;28;20127;-88
2022/05/22 02:05:43;;;;;;;7.90;6.78;;;;;;;;;;5057567;28;20103;-87
2022/05/22 02:08:22;;;;;;;8.57;6.07;;;;;;;;;;5057943;28;20083;-87
2022/05/22 02:10:54;;;;;;;9.05;6.13;;;;;;;;;;5057667;28;20047;-87
2022/05/22 02:13:22;;;;;;;11.68;6.75;;;;;;;;;;5057492;28;20479;-86
2022/05/22 02:15:50;;;;;;;9.07;6.78;;;;;;;;;;5055916;28;20055;-87
2022/05/22 02:18:18;;;;;;;7.68;5.95;;;;;;;;;;5057543;28;20052;-87
2022/05/22 02:20:47;;;;;;;6.47;5.85;;;;;;;;;;5075170;28;20147;-88
2022/05/22 02:23:15;;;;;;;7.50;5.57;;;;;;;;;;5075094;28;20515;-87
2022/05/22 02:25:43;;;;;;;8.95;6.32;;;;;;;;;;5074878;28;20055;-87
2022/05/22 02:28:14;;;;;;;7.82;5.80;;;;;;;;;;5074799;28;20148;-86
2022/05/22 02:30:43;;;;;;;6.78;6.10;;;;;;;;;;5057171;28;20052;-87
2022/05/22 02:33:10;;;;;;;6.13;5.53;;;;;;;;;;5057641;28;20069;-87
2022/05/22 02:35:38;;;;;;;10.70;6.22;;;;;;;;;;5057183;28;20131;-88
2022/05/22 02:38:05;;;;;;;7.13;6.43;;;;;;;;;;5057367;28;20123;-87
2022/05/22 02:40:33;;;;;;;8.85;6.80;;;;;;;;;;5057053;28;20057;-87
2022/05/22 02:43:01;;;;;;;9.13;6.78;;;;;;;;;;5057023;28;20048;-87
2022/05/22 02:45:31;;;;;;;10.23;7.13;;;;;;;;;;5074688;28;20052;-88
2022/05/22 02:47:58;;;;;;;10.52;6.45;;;;;;;;;;5057184;28;20049;-87
2022/05/22 02:50:26;;;;;;;9.80;6.35;;;;;;;;;;5056984;28;20052;-88
2022/05/22 02:52:53;;;;;;;6.50;5.93;;;;;;;;;;5074418;28;20049;-88
2022/05/22 02:55:21;;;;;;;8.95;7.35;;;;;;;;;;5074055;28;20055;-87
2022/05/22 02:57:48;;;;;;;8.65;6.72;;;;;;;;;;5074622;28;20489;-87
2022/05/22 03:00:21;;;;;;;7.93;6.55;;;;;;;;;;5056961;28;20072;-87
2022/05/22 03:02:48;;;;;;;10.73;6.97;;;;;;;;;;5074488;28;20078;-87
2022/05/22 03:05:15;;;;;;;8.77;6.60;;;;;;;;;;5056871;28;20048;-87
2022/05/22 03:07:46;;;;;;;10.25;7.07;;;;;;;;;;5074297;28;20466;-87
2022/05/22 03:10:14;;;;;;;9.05;6.72;;;;;;;;;;5074654;28;20052;-87
2022/05/22 03:12:41;;;;;;;14.20;7.15;;;;;;;;;;5074521;28;20110;-87
2022/05/22 03:15:09;;;;;;;12.18;8.00;;;;;;;;;;5056670;28;20048;-88
2022/05/22 03:17:36;;;;;;;7.53;6.80;;;;;;;;;;5081627;28;20067;-88
2022/05/22 03:20:05;;;;;;;8.73;6.93;;;;;;;;;;5073869;28;20056;-87
2022/05/22 03:22:32;;;;;;;11.38;6.72;;;;;;;;;;5056536;28;20139;-87
2022/05/22 03:25:00;;;;;;;7.60;6.38;;;;;;;;;;5056188;28;20053;-87
2022/05/22 03:27:28;;;;;;;8.30;6.75;;;;;;;;;;5073453;28;20044;-87
2022/05/22 03:29:55;;;;;;;9.50;7.13;;;;;;;;;;5056466;28;20060;-87
2022/05/22 03:32:22;;;;;;;8.43;7.47;;;;;;;;;;5056322;28;20098;-87
2022/05/22 03:34:55;;;;;;;7.82;7.07;;;;;;;;;;5056789;28;20075;-87
2022/05/22 03:37:24;;;;;;;8.13;7.15;;;;;;;;;;5055877;28;20127;-87
2022/05/22 03:39:55;;;;;;;17.02;7.53;;;;;;;;;;5073543;28;20135;-88
2022/05/22 03:42:24;;;;;;;8.45;7.53;;;;;;;;;;5056307;28;20124;-88
2022/05/22 03:44:52;;;;;;;8.93;7.05;;;;;;;;;;5055682;28;20127;-88
2022/05/22 03:47:19;;;;;;;9.48;6.93;;;;;;;;;;5073372;28;20099;-87
2022/05/22 03:49:46;;;;;;;9.00;7.57;;;;;;;;;;5056052;28;20054;-88
2022/05/22 03:52:14;;;;;;;9.18;7.07;;;;;;;;;;5056369;28;20055;-87
2022/05/22 03:54:41;;;;;;;11.07;6.75;;;;;;;;;;5055664;28;20139;-88
2022/05/22 03:57:11;;;;;;;6.75;6.07;;;;;;;;;;5068251;28;20053;-88
2022/05/22 03:59:39;;;;;;;10.23;7.30;;;;;;;;;;5072189;28;20056;-88
2022/05/22 04:02:06;;;;;;;8.18;6.50;;;;;;;;;;5073296;28;20095;-88
2022/05/22 04:04:34;;;;;;;8.23;7.43;;;;;;;;;;5068435;28;20048;-87
2022/05/22 04:07:01;;;;;;;9.75;7.05;;;;;;;;;;5072178;28;20574;-88
2022/05/22 04:09:29;;;;;;;9.05;6.90;;;;;;;;;;5067599;28;20428;-88
2022/05/22 04:11:56;;;;;;;8.18;6.68;;;;;;;;;;5072440;28;20075;-87
2022/05/22 04:14:23;;;;;;;10.27;7.72;;;;;;;;;;5066485;28;20062;-87
2022/05/22 04:16:51;;;;;;;7.63;6.53;;;;;;;;;;5073215;28;20056;-88
2022/05/22 04:19:18;;;;;;;8.65;7.10;;;;;;;;;;5066121;28;20386;-87
2022/05/22 04:21:46;;;;;;;15.73;9.80;;;;;;;;;;5071994;28;20136;-87
2022/05/22 04:27:04;;;;;;;14.43;10.65;;;;;;;;;;5072935;28;20564;-87
2022/05/22 04:29:32;;;;;;;12.25;8.35;;;;;;;;;;5072911;28;20143;-87
2022/05/22 04:31:59;;;;;;;13.85;7.70;;;;;;;;;;5071729;28;20133;-87
2022/05/22 04:34:27;;;;;;;8.57;6.88;;;;;;;;;;5070565;28;20084;-87
2022/05/22 04:36:54;;;;;;;29.17;23.45;;;;;;;;;;5085152;28;20076;-87
2022/05/22 04:39:21;;;;;;;12.07;8.43;;;;;;;;;;5069300;28;20481;-87
2022/05/22 04:41:48;;;;;;;8.75;7.57;;;;;;;;;;5077506;28;20056;-87
2022/05/22 04:44:15;;;;;;;11.82;8.82;;;;;;;;;;5069279;28;20124;-87
2022/05/22 04:46:43;;;;;;;9.82;7.70;;;;;;;;;;5076021;28;20510;-87
2022/05/22 04:49:10;;;;;;;10.35;9.40;;;;;;;;;;5069018;28;20044;-87
2022/05/22 04:51:37;;;;;;;10.52;6.60;;;;;;;;;;5075820;28;20485;-87
2022/05/22 04:54:05;;;;;;;6.72;5.50;;;;;;;;;;5067505;28;20083;-87
2022/05/22 04:56:32;;;;;;;5.93;5.18;;;;;;;;;;5075244;28;20548;-88
2022/05/22 04:58:59;;;;;;;6.43;5.13;;;;;;;;;;5076864;28;20048;-87
2022/05/22 05:01:27;;;;;;;6.63;4.88;;;;;;;;;;5070813;28;20087;-87
2022/05/22 05:03:54;;;;;;;7.65;5.40;;;;;;;;;;5076594;28;20053;-87
2022/05/22 05:06:22;;;;;;;6.88;5.00;;;;;;;;;;5069752;28;20398;-87
2022/05/22 05:08:49;;;;;;;7.05;5.20;;;;;;;;;;5075630;28;20060;-87
2022/05/22 05:11:16;;;;;;;5.07;4.25;;;;;;;;;;5069132;28;20041;-87
2022/05/22 05:13:43;;;;;;;4.65;4.25;;;;;;;;;;5076356;28;20053;-87
2022/05/22 05:16:12;;;;;;;3.58;3.17;;;;;;;;;;5076026;28;20059;-88
2022/05/22 05:18:39;;;;;;;5.43;3.50;;;;;;;;;;5071925;28;20413;-87
2022/05/22 05:21:11;;;;;;;7.28;4.28;;;;;;;;;;5067579;28;20053;-87
2022/05/22 05:23:39;;;;;;;7.03;3.83;;;;;;;;;;5075189;28;20044;-87
2022/05/22 05:26:06;;;;;;;5.30;3.72;;;;;;;;;;5067565;28;20051;-88
2022/05/22 05:28:33;;;;;;;5.80;3.83;;;;;;;;;;5076893;28;20083;-88
2022/05/22 05:31:01;;;;;;;6.28;3.67;;;;;;;;;;5076379;28;20072;-88
2022/05/22 05:33:28;;;;;;;9.95;4.05;;;;;;;;;;5075902;28;20088;-88
2022/05/22 05:35:55;;;;;;;5.57;3.83;;;;;;;;;;5076218;28;20131;-88
2022/05/22 05:38:22;;;;;;;8.93;3.83;;;;;;;;;;5069504;28;20131;-88
2022/05/22 05:41:09;;;;;;;5.35;4.63;;;;;;;;;;5075048;28;20523;-88
2022/05/22 05:43:37;;;;;;;6.57;3.80;;;;;;;;;;5076134;28;20048;-88
2022/05/22 05:46:04;;;;;;;7.65;4.18;;;;;;;;;;5075693;28;20052;-88
2022/05/22 05:48:40;;;;;;;12.02;4.22;;;;;;;;;;5071618;28;20052;-88
2022/05/22 05:51:07;;;;;;;5.80;4.18;;;;;;;;;;5077736;28;20135;-88
2022/05/22 05:53:34;;;;;;;14.60;4.43;;;;;;;;;;5088701;28;20052;-88
2022/05/22 05:56:04;;;;;;;8.85;3.92;;;;;;;;;;5068861;28;20152;-88
2022/05/22 05:58:44;;;;;;;7.72;4.03;;;;;;;;;;5039972;28;20041;-87
2022/05/22 06:01:12;;;;;;;15.90;4.32;;;;;;;;;;5038179;28;20084;-87
2022/05/22 06:03:39;;;;;;;15.02;4.45;;;;;;;;;;5038003;28;20052;-87
2022/05/22 06:06:07;;;;;;;10.07;4.38;;;;;;;;;;5055552;28;20152;-87
2022/05/22 06:08:35;;;;;;;15.00;4.50;;;;;;;;;;5055242;28;20059;-87
2022/05/22 06:11:02;;;;;;;21.40;4.80;;;;;;;;;;5037794;28;20136;-87
2022/05/22 06:13:30;;;;;;;22.67;4.55;;;;;;;;;;5037645;28;20044;-87
2022/05/22 06:15:58;;;;;;;15.20;4.57;;;;;;;;;;5037482;28;20084;-88
2022/05/22 06:18:25;;;;;;;11.30;3.75;;;;;;;;;;5037602;28;20053;-88
2022/05/22 06:20:52;;;;;;;13.57;4.43;;;;;;;;;;5055365;28;20102;-88
2022/05/22 06:23:19;;;;;;;15.68;4.30;;;;;;;;;;5037519;28;20053;-88
2022/05/22 06:25:46;;;;;;;10.45;3.83;;;;;;;;;;5037164;28;20055;-87
2022/05/22 06:28:17;;;;;;;13.05;3.90;;;;;;;;;;5053357;28;20095;-87
2022/05/22 06:30:44;;;;;;;12.35;3.20;;;;;;;;;;5032627;28;20051;-87
2022/05/22 06:33:12;;;;;;;15.00;3.20;;;;;;;;;;5036668;28;20053;-85
2022/05/22 06:35:40;;;;;;;10.68;3.30;;;;;;;;;;5036291;28;20057;-87
2022/05/22 06:38:08;;;;;;;8.10;3.08;;;;;;;;;;5054289;28;20132;-86
2022/05/22 06:40:37;;;;;;;9.30;2.80;;;;;;;;;;5054123;28;20139;-86
2022/05/22 06:43:04;;;;;;;10.48;3.78;;;;;;;;;;5036496;28;20118;-87
2022/05/22 06:45:32;;;;;;;8.15;3.28;;;;;;;;;;5036361;28;20067;-87
2022/05/22 06:47:59;;;;;;;7.68;2.85;;;;;;;;;;5054176;28;20052;-87
2022/05/22 06:50:26;;;;;;;13.18;2.83;;;;;;;;;;5053851;28;20098;-89
2022/05/22 06:52:53;;;;;;;11.85;3.10;;;;;;;;;;5053934;28;20139;-87
2022/05/22 06:55:21;;;;;;;5.80;2.63;;;;;;;;;;5053641;28;20051;-88
2022/05/22 06:57:48;;;;;;;5.85;2.58;;;;;;;;;;5036618;28;20081;-86
2022/05/22 07:00:18;;;;;;;10.55;2.45;;;;;;;;;;5036118;28;20128;-86
2022/05/22 07:02:46;;;;;;;6.18;2.63;;;;;;;;;;5035672;28;20559;-85
2022/05/22 07:05:14;;;;;;;6.53;2.70;;;;;;;;;;5036012;28;20052;-88
2022/05/22 07:07:41;;;;;;;8.65;2.10;;;;;;;;;;5053801;28;20053;-86
2022/05/22 07:10:08;;;;;;;6.75;2.47;;;;;;;;;;5039486;28;20059;-87
2022/05/22 07:12:35;;;;;;;6.90;2.22;;;;;;;;;;5037049;28;20585;-86
2022/05/22 07:15:04;;;;;;;6.28;2.28;;;;;;;;;;5035824;28;20048;-87
2022/05/22 07:17:31;;;;;;;11.27;2.40;;;;;;;;;;5035886;28;20072;-87
2022/05/22 07:19:59;;;;;;;4.88;2.08;;;;;;;;;;5036053;28;20465;-86
2022/05/22 07:22:26;;;;;;;7.68;2.15;;;;;;;;;;5035551;28;20084;-89
2022/05/22 07:24:54;;;;;;;5.05;2.20;;;;;;;;;;5035672;28;20616;-87
2022/05/22 07:27:21;;;;;;;7.05;2.45;;;;;;;;;;5035858;28;20638;-86
2022/05/22 07:29:49;;;;;;;7.85;2.83;;;;;;;;;;5053334;28;20140;-87
2022/05/22 07:32:16;;;;;;;6.93;2.60;;;;;;;;;;5035884;28;20098;-87
2022/05/22 07:34:43;;;;;;;6.80;3.10;;;;;;;;;;5052688;28;20053;-86
2022/05/22 07:37:12;;;;;;;7.82;2.85;;;;;;;;;;5034880;28;20075;-85
2022/05/22 07:39:39;;;;;;;4.63;2.58;;;;;;;;;;5035640;28;20057;-86
2022/05/22 07:42:07;;;;;;;4.90;2.40;;;;;;;;;;5035684;28;20123;-86
2022/05/22 07:44:34;;;;;;;7.53;3.08;;;;;;;;;;5052733;28;20045;-85
2022/05/22 07:47:01;;;;;;;6.70;3.50;;;;;;;;;;5053108;28;20074;-85
2022/05/22 07:52:14;;;;;;;9.63;5.05;;;;;;;;;;5052806;28;20489;-85
2022/05/22 07:54:49;;;;;;;11.13;3.70;;;;;;;;;;5036663;28;20052;-86
2022/05/22 07:57:16;;;;;;;9.32;3.83;;;;;;;;;;5034455;28;20135;-86
2022/05/22 07:59:43;;;;;;;7.82;3.80;;;;;;;;;;5035048;28;20468;-84
2022/05/22 08:02:14;;;;;;;6.72;3.72;;;;;;;;;;5034581;28;20136;-84
2022/05/22 08:04:41;;;;;;;6.10;3.50;;;;;;;;;;5034479;28;20052;-84
2022/05/22 08:07:09;;;;;;;5.40;2.60;;;;;;;;;;5034828;28;20059;-87
2022/05/22 08:09:36;;;;;;;7.30;3.58;;;;;;;;;;5034797;28;20132;-85
2022/05/22 08:12:04;;;;;;;8.05;3.67;;;;;;;;;;5052488;28;20463;-86
2022/05/22 08:14:31;;;;;;;5.38;2.42;;;;;;;;;;5034576;28;20128;-87
2022/05/22 08:17:01;;;;;;;31.33;4.40;;;;;;;;;;5052018;28;20083;-86
2022/05/22 08:19:29;;;;;;;10.63;2.92;;;;;;;;;;5035071;28;20049;-86
2022/05/22 08:21:56;;;;;;;8.50;3.60;;;;;;;;;;5052737;28;20481;-85
2022/05/22 08:24:23;;;;;;;9.02;3.45;;;;;;;;;;5034653;28;20055;-87
2022/05/22 08:26:51;;;;;;;6.38;3.08;;;;;;;;;;5035123;28;20481;-85
2022/05/22 08:29:18;;;;;;;7.88;3.15;;;;;;;;;;5037963;28;20559;-87
2022/05/22 08:31:46;;;;;;;8.13;3.83;;;;;;;;;;5056011;28;20072;-86
2022/05/22 08:34:14;;;;;;;8.18;2.90;;;;;;;;;;5034965;28;20060;-86
2022/05/22 08:36:41;;;;;;;8.63;3.53;;;;;;;;;;5034849;28;20053;-88
2022/05/22 08:39:08;;;;;;;4.68;3.33;;;;;;;;;;5034922;28;20089;-86
2022/05/22 08:41:40;;;;;;;6.45;3.10;;;;;;;;;;5034337;28;20140;-86
2022/05/22 08:44:13;;;;;;;8.32;2.67;;;;;;;;;;5052009;28;20084;-87
2022/05/22 08:46:40;;;;;;;11.70;3.80;;;;;;;;;;5034559;28;20057;-88
2022/05/22 08:49:16;;;;;;;44.42;6.53;;;;;;;;;;5052180;28;20124;-86
2022/05/22 08:51:48;;;;;;;6.80;2.40;;;;;;;;;;5034438;28;20056;-86
2022/05/22 08:54:18;;;;;;;7.47;3.05;;;;;;;;;;5052271;28;20170;-85
2022/05/22 08:59:34;;;;;;;5.93;2.80;;;;;;;;;;5052418;28;20083;-86
2022/05/22 09:02:25;;;;;;;8.65;2.95;;;;;;;;;;5034806;28;20099;-87
2022/05/22 09:05:01;;;;;;;6.68;2.67;;;;;;;;;;5035063;28;20504;-86
2022/05/22 09:07:32;;;;;;;8.88;3.10;;;;;;;;;;5052727;28;20079;-84
2022/05/22 09:10:07;;;;;;;5.03;2.80;;;;;;;;;;5035023;28;20124;-86
2022/05/22 09:12:46;;;;;;;25.25;4.35;;;;;;;;;;5034753;28;20128;-91
2022/05/22 09:15:34;;;;;;;15.18;3.58;;;;;;;;;;5034691;28;20107;-86
2022/05/22 09:18:33;;;;;;;8.52;3.08;;;;;;;;;;5036699;28;20490;-91
2022/05/22 09:21:14;;;;;;;7.10;2.72;;;;;;;;;;5035033;28;20049;-87
2022/05/22 09:23:44;;;;;;;5.35;2.58;;;;;;;;;;5052099;28;20140;-89
2022/05/22 09:26:16;;;;;;;4.10;2.35;;;;;;;;;;5038425;28;20581;-86
2022/05/22 09:29:08;;;;;;;6.85;2.67;;;;;;;;;;5055663;28;20080;-88
2022/05/22 09:31:39;;;;;;;9.13;2.40;;;;;;;;;;5038160;28;20059;-89
2022/05/22 09:34:25;;;;;;;6.13;2.38;;;;;;;;;;5037754;28;20056;-87
2022/05/22 09:37:16;;;;;;;5.43;2.60;;;;;;;;;;5038486;28;20059;-89
2022/05/22 09:39:52;;;;;;;7.93;2.83;;;;;;;;;;5038287;28;20496;-86
2022/05/22 09:42:38;;;;;;;5.43;2.55;;;;;;;;;;5037854;28;20548;-90
2022/05/22 09:45:32;;;;;;;8.23;2.78;;;;;;;;;;5039535;28;20045;-85
2022/05/22 09:48:06;;;;;;;4.93;2.30;;;;;;;;;;5061951;28;20136;-91
2022/05/22 09:50:48;;;;;;;6.40;2.78;;;;;;;;;;5040310;28;20057;-86
2022/05/22 09:53:18;;;;;;;4.95;2.40;;;;;;;;;;5037839;28;20127;-85
2022/05/22 09:55:47;;;;;;;5.65;2.50;;;;;;;;;;5037189;28;20106;-87
2022/05/22 09:58:36;;;;;;;6.20;2.50;;;;;;;;;;5037506;28;20128;-86
2022/05/22 10:01:22;;;;;;;4.53;2.13;;;;;;;;;;5037222;28;20048;-85
2022/05/22 10:04:01;;;;;;;4.70;2.25;;;;;;;;;;5037659;28;20110;-86
2022/05/22 10:06:28;;;;;;;3.08;1.83;;;;;;;;;;5037393;28;20053;-85
2022/05/22 10:09:11;;;;;;;6.65;2.20;;;;;;;;;;5037660;28;20060;-85
2022/05/22 10:11:57;;;;;;;4.28;2.10;;;;;;;;;;5037135;28;20155;-86
2022/05/22 10:14:46;;;;;;;3.53;2.00;;;;;;;;;;5039824;28;20049;-85
2022/05/22 10:17:13;;;;;;;7.40;2.50;;;;;;;;;;5054801;28;20059;-85
2022/05/22 10:19:52;;;;;;;5.00;2.03;;;;;;;;;;5054333;28;20049;-88
2022/05/22 10:22:33;;;;;;;6.47;2.33;;;;;;;;;;5037499;28;20561;-86
2022/05/22 10:25:22;;;;;;;7.70;2.38;;;;;;;;;;5038903;28;20052;-85
2022/05/22 10:28:10;;;;;;;4.00;1.92;;;;;;;;;;5038861;28;20120;-87
2022/05/22 10:30:45;;;;;;;5.32;1.85;;;;;;;;;;5037300;28;20049;-85
2022/05/22 10:33:17;;;;;;;7.72;2.33;;;;;;;;;;5038335;28;20139;-89
2022/05/22 10:36:12;;;;;;;6.82;2.10;;;;;;;;;;5036739;28;20157;-87
2022/05/22 10:38:42;;;;;;;5.85;1.98;;;;;;;;;;5033091;28;20421;-87
2022/05/22 10:44:22;;;;;;;8.75;2.58;;;;;;;;;;5058952;28;20088;-87
2022/05/22 10:46:53;;;;;;;4.90;2.40;;;;;;;;;;5054895;28;20049;-87
2022/05/22 10:49:24;;;;;;;5.07;2.40;;;;;;;;;;5038007;28;20049;-88
2022/05/22 10:52:02;;;;;;;8.35;2.47;;;;;;;;;;5037652;28;20455;-89
2022/05/22 10:54:31;;;;;;;3.78;1.80;;;;;;;;;;5037098;28;20687;-86
2022/05/22 10:57:13;;;;;;;3.42;2.08;;;;;;;;;;5058949;28;20588;-88
2022/05/22 10:59:42;;;;;;;4.30;2.50;;;;;;;;;;5058492;28;20546;-92
2022/05/22 11:02:21;;;;;;;4.07;2.30;;;;;;;;;;5076885;28;20052;-87
2022/05/22 11:04:50;;;;;;;4.88;2.42;;;;;;;;;;5082572;28;20044;-88
2022/05/22 11:07:34;;;;;;;4.20;2.05;;;;;;;;;;5074057;28;20045;-86
2022/05/22 11:10:01;;;;;;;;;;;;;;;;;;5074933;28;20447;-87
2022/05/22 11:12:28;;;;;;;5.22;2.20;;;;;;;;;;5073242;28;19967;-87
2022/05/22 11:15:29;;;;;;;3.97;2.40;;;;;;;;;;5074369;28;20048;-86
2022/05/22 11:18:22;;;;;;;4.10;1.88;;;;;;;;;;5069950;28;20131;-86
2022/05/22 11:20:53;;;;;;;6.53;2.13;;;;;;;;;;5070556;28;20044;-85
2022/05/22 11:23:32;;;;;;;6.60;2.17;;;;;;;;;;5073660;28;20079;-89
2022/05/22 11:26:10;;;;;;;8.98;2.20;;;;;;;;;;5073140;28;20135;-85
2022/05/22 11:29:02;;;;;;;3.70;2.05;;;;;;;;;;5072988;28;20056;-86
2022/05/22 11:31:48;;;;;;;5.50;1.95;;;;;;;;;;5074258;28;20056;-86
2022/05/22 11:34:24;;;;;;;4.10;1.88;;;;;;;;;;5073312;28;20106;-86
2022/05/22 11:37:11;;;;;;;3.30;1.13;;;;;;;;;;5073946;28;20135;-84
2022/05/22 11:39:49;;;;;;;6.55;1.85;;;;;;;;;;5073243;28;20451;-85
2022/05/22 11:42:25;;;;;;;5.07;1.80;;;;;;;;;;5074133;28;20135;-85
2022/05/22 11:45:11;;;;;;;3.33;1.52;;;;;;;;;;5073518;28;20471;-86
2022/05/22 11:47:50;;;;;;;4.88;1.98;;;;;;;;;;5072005;28;20610;-86
2022/05/22 11:50:36;;;;;;;5.32;1.83;;;;;;;;;;5072545;28;20106;-85
2022/05/22 11:53:30;;;;;;;3.03;2.00;;;;;;;;;;5073343;28;20048;-86
2022/05/22 11:56:06;;;;;;;4.75;1.75;;;;;;;;;;5073276;28;20079;-86
2022/05/22 11:58:35;;;;;;;7.03;2.03;;;;;;;;;;5055570;28;20531;-86
2022/05/22 12:01:09;;;;;;;5.20;2.10;;;;;;;;;;5056513;28;20206;-87
2022/05/22 12:03:51;;;;;;;2.97;1.67;;;;;;;;;;5055668;28;20476;-85
2022/05/22 12:06:23;;;;;;;4.55;2.20;;;;;;;;;;5056561;28;20511;-84
2022/05/22 12:09:00;;;;;;;4.13;1.85;;;;;;;;;;5057268;28;20095;-84
2022/05/22 12:11:40;;;;;;;4.93;2.15;;;;;;;;;;5055584;28;20102;-85
2022/05/22 12:14:25;;;;;;;4.75;2.03;;;;;;;;;;5055535;28;20139;-85
2022/05/22 12:16:55;;;;;;;4.65;2.53;;;;;;;;;;5073372;28;20449;-85
2022/05/22 12:19:40;;;;;;;3.10;1.88;;;;;;;;;;5075670;28;20048;-84
2022/05/22 12:22:21;;;;;;;4.38;1.90;;;;;;;;;;5057308;28;20044;-84
2022/05/22 12:24:59;;;;;;;3.17;1.80;;;;;;;;;;5057255;28;20076;-88
2022/05/22 12:27:32;;;;;;;5.05;2.90;;;;;;;;;;5055739;28;20500;-84
2022/05/22 12:30:11;;;;;;;4.13;2.10;;;;;;;;;;5072187;28;20135;-84
2022/05/22 12:32:43;;;;;;;9.57;2.20;;;;;;;;;;5056345;28;20040;-86
2022/05/22 12:35:13;;;;;;;3.13;1.90;;;;;;;;;;5082162;28;20448;-89
2022/05/22 12:37:45;;;;;;;8.73;2.35;;;;;;;;;;5056631;28;20048;-85
2022/05/22 12:40:37;;;;;;;7.63;2.30;;;;;;;;;;5071566;28;20045;-85
2022/05/22 12:43:05;;;;;;;4.07;2.28;;;;;;;;;;5072271;28;20139;-87
2022/05/22 12:45:33;;;;;;;9.95;2.45;;;;;;;;;;5055971;28;20041;-87
2022/05/22 12:48:19;;;;;;;4.78;2.17;;;;;;;;;;5088761;28;20052;-86
2022/05/22 12:50:48;;;;;;;6.15;1.90;;;;;;;;;;5064615;28;20399;-86
2022/05/22 12:53:34;;;;;;;5.40;1.95;;;;;;;;;;5087475;28;20063;-83
2022/05/22 12:56:20;;;;;;;5.60;2.35;;;;;;;;;;5077463;28;20499;-85
2022/05/22 12:58:52;;;;;;;7.43;2.17;;;;;;;;;;5082275;28;20056;-88
2022/05/22 13:01:33;;;;;;;6.85;2.22;;;;;;;;;;5095423;28;20076;-87
2022/05/22 13:04:18;;;;;;;6.32;2.83;;;;;;;;;;5059670;28;20098;-87
2022/05/22 13:06:50;;;;;;;5.57;2.65;;;;;;;;;;5072838;28;20135;-88
2022/05/22 13:09:37;;;;;;;6.43;3.15;;;;;;;;;;5083897;28;20135;-86
2022/05/22 13:12:07;;;;;;;6.45;2.45;;;;;;;;;;5059118;28;20450;-85
2022/05/22 13:14:40;;;;;;;3.83;2.25;;;;;;;;;;5072824;28;20056;-86
2022/05/22 13:17:09;;;;;;;7.10;1.95;;;;;;;;;;5096461;28;20060;-86
2022/05/22 13:19:46;;;;;;;5.30;2.47;;;;;;;;;;5072666;28;20060;-85
2022/05/22 13:22:25;;;;;;;3.88;2.10;;;;;;;;;;5058936;28;20084;-86
2022/05/22 13:24:53;;;;;;;8.18;2.65;;;;;;;;;;5042408;28;20048;-89
2022/05/22 13:27:29;;;;;;;7.75;2.08;;;;;;;;;;5060532;28;20127;-87
2022/05/22 13:30:15;;;;;;;4.57;2.15;;;;;;;;;;5063269;28;20048;-88
2022/05/22 13:33:04;;;;;;;5.35;2.28;;;;;;;;;;5068958;28;20091;-85
2022/05/22 13:35:37;;;;;;;4.82;2.88;;;;;;;;;;5042144;28;20140;-88
2022/05/22 13:38:10;;;;;;;5.28;2.40;;;;;;;;;;5057933;28;20135;-85
2022/05/22 13:40:51;;;;;;;4.25;2.42;;;;;;;;;;5076450;28;20080;-86
2022/05/22 13:43:18;;;;;;;6.68;2.15;;;;;;;;;;5057475;28;20127;-87
2022/05/22 13:45:58;;;;;;;5.07;2.30;;;;;;;;;;5058310;28;20041;-88
2022/05/22 13:48:56;;;;;;;6.05;2.55;;;;;;;;;;5075863;28;20056;-87
2022/05/22 13:54:53;;;;;;;4.38;2.40;;;;;;;;;;5075049;28;20467;-86
2022/05/22 13:57:22;;;;;;;4.50;2.33;;;;;;;;;;5028176;28;20511;-89
2022/05/22 13:59:51;;;;;;;6.93;2.70;;;;;;;;;;5055133;28;20057;-86
2022/05/22 14:02:26;;;;;;;5.53;3.10;;;;;;;;;;5054549;28;20048;-87
2022/05/22 14:04:54;;;;;;;9.43;2.95;;;;;;;;;;5054389;28;20191;-86
2022/05/22 14:07:26;;;;;;;5.90;2.50;;;;;;;;;;5054459;28;20048;-86
2022/05/22 14:09:54;;;;;;;5.47;1.95;;;;;;;;;;5054244;28;20171;-85
2022/05/22 14:12:33;;;;;;;3.42;1.95;;;;;;;;;;5055548;28;20048;-87
2022/05/22 14:15:14;;;;;;;6.03;2.38;;;;;;;;;;5021137;28;20402;-85
2022/05/22 14:17:41;;;;;;;4.43;2.90;;;;;;;;;;5053856;28;20136;-86
2022/05/22 14:20:29;;;;;;;10.75;2.97;;;;;;;;;;5054249;28;20055;-85
2022/05/22 14:23:12;;;;;;;4.82;2.53;;;;;;;;;;5037427;28;20063;-85
2022/05/22 14:25:41;;;;;;;5.13;2.15;;;;;;;;;;5053663;28;20390;-85
2022/05/22 14:28:09;;;;;;;5.55;2.40;;;;;;;;;;5054003;28;20108;-87
2022/05/22 14:30:40;;;;;;;2.53;1.98;;;;;;;;;;5037387;28;20111;-86
2022/05/22 14:33:16;;;;;;;4.03;2.55;;;;;;;;;;5054906;28;20502;-85
2022/05/22 14:35:45;;;;;;;4.53;2.80;;;;;;;;;;5053887;28;20078;-87
2022/05/22 14:38:16;;;;;;;3.65;2.22;;;;;;;;;;5052601;28;20140;-83
2022/05/22 14:41:03;;;;;;;3.28;2.10;;;;;;;;;;5053157;28;20128;-84
2022/05/22 14:43:41;;;;;;;6.68;2.90;;;;;;;;;;5023299;28;20080;-84
2022/05/22 14:46:13;;;;;;;4.63;2.42;;;;;;;;;;5053784;28;20124;-85
2022/05/22 14:48:44;;;;;;;4.72;2.70;;;;;;;;;;5053682;28;20581;-84
2022/05/22 14:51:32;;;;;;;5.03;2.60;;;;;;;;;;5054129;28;20045;-83
2022/05/22 14:54:12;;;;;;;6.95;3.08;;;;;;;;;;5054032;28;20139;-84
2022/05/22 14:56:44;;;;;;;4.53;2.50;;;;;;;;;;5055610;28;20148;-84
2022/05/22 14:59:14;;;;;;;4.20;2.67;;;;;;;;;;5055720;28;20139;-83
2022/05/22 15:01:43;;;;;;;4.70;2.50;;;;;;;;;;5052740;28;20072;-83
2022/05/22 15:04:12;;;;;;;7.13;2.47;;;;;;;;;;5052443;28;20472;-85
2022/05/22 15:06:47;;;;;;;6.68;2.38;;;;;;;;;;5052940;28;20057;-85
2022/05/22 15:09:26;;;;;;;4.35;2.58;;;;;;;;;;5052906;28;20132;-83
2022/05/22 15:11:54;;;;;;;5.38;2.60;;;;;;;;;;5054718;28;20052;-85
2022/05/22 15:14:29;;;;;;;5.57;2.80;;;;;;;;;;5053017;28;20069;-84
2022/05/22 15:16:59;;;;;;;4.03;2.50;;;;;;;;;;5052903;28;20416;-85
2022/05/22 15:27:55;;;;;;;3.92;2.50;;;;;;;;;;5053771;28;20092;-84
2022/05/22 15:30:25;;;;;;;7.20;2.67;;;;;;;;;;5052670;28;20409;-87
2022/05/22 15:33:01;;;;;;;4.88;2.40;;;;;;;;;;5052766;28;20053;-86